IST,Max TemperatureF,Mean TemperatureF,Min TemperatureF,Max Dew PointF,MeanDew PointF,Min DewpointF,Max Humidity, Mean Humidity, Min Humidity, Max Sea Level PressureIn, Mean Sea Level PressureIn, Min Sea Level PressureIn, Max VisibilityMiles, Mean VisibilityMiles, Min VisibilityMiles, Max Wind SpeedMPH, Mean Wind SpeedMPH, Max Gust SpeedMPH,PrecipitationIn, CloudCover, Events, WindDirDegrees
2013-3-1,51,42,33,41,36,30,100,81,49,30.52,30.48,30.45,16,5,2,15,6,,0.00,4,,52
2013-3-2,45,36,28,34,30,27,93,78,53,30.48,30.38,30.30,12,6,5,9,5,,0.00,3,,53
2013-3-3,46,40,33,37,33,31,93,77,58,30.30,30.14,30.01,9,6,4,14,6,,0.00,6,,106
2013-3-4,44,41,38,41,37,32,93,83,74,30.01,29.81,29.68,9,4,1,14,8,,0.00,6,Rain,90
2013-3-5,50,42,34,41,38,32,93,81,64,29.70,29.56,29.47,6,4,2,15,8,,0.00,6,Rain,94
2013-3-6,49,46,43,47,45,40,100,92,81,29.47,29.39,29.33,6,3,1,17,13,,0.01,7,Rain,100
2013-3-7,50,48,46,48,47,46,100,95,92,29.35,29.22,29.15,6,4,2,18,14,,0.03,7,Rain,97
2013-3-8,57,52,46,52,48,45,100,89,72,29.36,29.22,29.12,16,6,6,16,13,,0.00,5,Rain,117
2013-3-9,56,50,44,48,45,41,100,85,63,29.56,29.44,29.30,16,6,2,21,16,32,0.03,6,Rain,99
2013-3-10,41,38,35,40,34,19,93,79,52,29.89,29.68,29.56,16,6,4,23,18,36,0.12,6,Rain,64
2013-3-11,37,32,28,23,21,16,80,62,38,30.09,29.99,29.89,19,7,6,28,19,41,0.00,3,Snow,37
2013-3-12,42,32,23,36,24,18,87,70,38,30.15,30.10,30.06,16,7,6,14,7,,0.00,3,,321
2013-3-13,50,40,30,41,34,28,100,82,49,30.12,30.06,30.01,19,7,6,17,5,,0.01,3,Fog-Rain,315
2013-3-14,50,41,32,41,37,32,93,84,63,30.15,30.01,29.74,12,6,6,20,8,,0.02,5,Rain,253
2013-3-15,47,42,37,43,38,35,100,85,55,29.73,29.50,29.33,12,6,5,20,13,,0.04,5,Rain,228
2013-3-16,47,38,28,37,32,28,100,83,50,29.39,29.31,29.27,12,6,6,12,7,,0.00,3,,7
2013-3-17,47,40,32,39,36,30,100,86,67,29.39,29.25,29.18,19,7,6,23,7,32,0.02,5,Rain,286
2013-3-18,46,40,33,37,35,32,100,86,66,29.44,29.31,29.18,16,6,5,14,6,,0.01,5,Rain,352
2013-3-19,39,36,32,36,33,30,93,87,75,29.56,29.50,29.44,12,7,6,12,8,,0.02,6,Rain,2
2013-3-20,46,38,29,36,32,28,93,76,40,29.80,29.69,29.56,16,7,6,10,5,,0.00,3,,108
2013-3-21,46,41,36,45,38,32,100,84,70,29.78,29.54,29.27,12,6,3,32,20,48,0.02,6,Rain,100
2013-3-22,51,46,42,48,46,41,100,90,77,29.50,29.30,29.18,16,6,2,32,21,46,0.12,5,Rain,117
2013-3-23,46,44,41,43,40,36,93,86,76,29.80,29.65,29.50,9,6,3,24,16,30,0.00,5,,97
2013-3-24,40,38,35,36,31,28,87,74,63,29.98,29.89,29.80,14,6,5,18,15,,0.00,7,,90
2013-3-25,40,38,35,30,26,23,81,63,40,30.04,30.01,29.98,16,6,6,18,13,,0.00,7,,77
2013-3-26,41,36,30,28,25,21,86,66,44,30.08,30.03,29.98,19,7,6,16,9,,0.00,6,,57
2013-3-27,42,34,26,28,26,25,93,75,44,30.02,29.98,29.95,19,7,5,17,10,,0.00,3,,50
2013-3-28,43,34,26,28,25,21,93,67,33,30.00,29.91,29.80,16,7,6,22,11,,0.00,3,,86
2013-3-29,42,38,35,28,26,21,75,60,42,29.80,29.77,29.74,12,6,6,23,18,31,0.00,5,,100
2013-3-30,45,40,35,27,24,21,65,55,35,29.91,29.86,29.80,19,7,6,22,13,,0.00,5,,113
2013-3-31,43,40,37,37,33,27,93,74,50,29.85,29.73,29.68,16,7,6,29,17,,0.08,6,Rain,118
2013-4-1,,,,,,,,,,,,,,,,,,,,,,